createdAt,value
2018-03-04T00:00:53.291Z,86.46
2018-03-04T00:03:20.996Z,86.64
2018-03-04T00:05:48.665Z,86.52
2018-03-04T00:08:16.383Z,86.64
2018-03-04T00:10:44.103Z,86.78
2018-03-04T00:13:11.877Z,87.06
2018-03-04T00:15:39.549Z,87.21
2018-03-04T00:18:07.260Z,87.54
2018-03-04T00:20:34.934Z,87.68
2018-03-04T00:23:02.726Z,87.68
2018-03-04T00:25:30.403Z,87.95
2018-03-04T00:27:58.135Z,88.26
2018-03-04T00:30:25.894Z,87.95
2018-03-04T00:32:53.593Z,88.24
2018-03-04T00:35:21.270Z,88.35
2018-03-04T00:37:48.987Z,88.18
2018-03-04T00:40:16.676Z,88.40
2018-03-04T00:42:44.350Z,88.42
2018-03-04T00:45:12.306Z,88.50
2018-03-04T00:47:39.993Z,88.60
2018-03-04T00:50:07.686Z,88.75
2018-03-04T00:52:35.350Z,88.89
2018-03-04T00:55:03.064Z,88.77
2018-03-04T00:57:30.752Z,89.03
2018-03-04T00:59:58.456Z,89.20
2018-03-04T01:02:26.123Z,89.32
2018-03-04T01:04:53.846Z,89.30
2018-03-04T01:07:21.531Z,89.39
2018-03-04T01:09:49.271Z,89.49
2018-03-04T01:12:16.950Z,89.66
2018-03-04T01:14:44.648Z,89.51
2018-03-04T01:17:12.413Z,89.73
2018-03-04T01:19:40.119Z,89.69
2018-03-04T01:22:07.810Z,89.86
2018-03-04T01:24:35.511Z,89.97
2018-03-04T01:27:03.222Z,89.92
2018-03-04T01:29:30.927Z,90.16
2018-03-04T01:31:58.619Z,90.29
2018-03-04T01:34:26.314Z,90.37
2018-03-04T01:36:53.999Z,90.39
2018-03-04T01:39:21.703Z,90.51
2018-03-04T01:41:49.373Z,90.51
2018-03-04T01:44:17.086Z,90.52
2018-03-04T01:46:44.794Z,90.63
2018-03-04T01:49:12.514Z,90.83
2018-03-04T01:51:51.677Z,90.94
2018-03-04T01:54:19.424Z,90.91
2018-03-04T01:56:47.119Z,90.95
2018-03-04T01:59:14.802Z,91.07
2018-03-04T02:01:42.500Z,91.03
2018-03-04T02:04:10.175Z,91.04
2018-03-04T02:06:37.875Z,91.09
2018-03-04T02:09:05.562Z,91.10
2018-03-04T02:11:33.360Z,91.06
2018-03-04T02:14:01.035Z,91.08
2018-03-04T02:16:28.734Z,91.22
2018-03-04T02:18:56.402Z,91.19
2018-03-04T02:21:24.106Z,91.21
2018-03-04T02:23:51.841Z,91.06
2018-03-04T02:26:19.534Z,91.08
2018-03-04T02:28:47.223Z,91.16
2018-03-04T02:31:14.922Z,91.02
2018-03-04T02:33:42.593Z,91.21
2018-03-04T02:36:10.290Z,91.27
2018-03-04T02:38:37.979Z,91.30
2018-03-04T02:41:05.673Z,91.31
2018-03-04T02:43:33.338Z,91.26
2018-03-04T02:46:01.042Z,91.19
2018-03-04T02:48:28.766Z,91.36
2018-03-04T02:50:56.463Z,91.29
2018-03-04T02:53:24.167Z,91.20
2018-03-04T02:55:51.870Z,91.28
2018-03-04T02:58:19.531Z,91.45
2018-03-04T03:00:47.276Z,91.47
2018-03-04T03:03:14.930Z,91.45
2018-03-04T03:05:42.621Z,91.44
2018-03-04T03:08:10.310Z,91.58
2018-03-04T03:10:38.098Z,91.53
2018-03-04T03:13:05.770Z,91.62
2018-03-04T03:15:33.483Z,91.60
2018-03-04T03:18:01.143Z,91.62
2018-03-04T03:20:28.844Z,91.72
2018-03-04T03:22:56.506Z,91.77
2018-03-04T03:25:24.170Z,91.79
2018-03-04T03:27:51.879Z,91.94
2018-03-04T03:30:19.547Z,92.09
2018-03-04T03:32:47.255Z,92.25
2018-03-04T03:35:14.911Z,92.42
2018-03-04T03:37:42.606Z,92.53
2018-03-04T03:40:10.305Z,92.58
2018-03-04T03:42:38.013Z,92.69
2018-03-04T03:45:05.681Z,92.96
2018-03-04T03:47:33.454Z,93.10
2018-03-04T03:50:01.120Z,93.18
2018-03-04T03:52:28.826Z,93.27
2018-03-04T03:54:56.530Z,93.31
2018-03-04T03:57:24.210Z,93.27
2018-03-04T03:59:51.910Z,93.46
2018-03-04T04:02:19.584Z,93.46
2018-03-04T04:04:47.283Z,93.49
2018-03-04T04:07:14.966Z,93.53
2018-03-04T04:09:42.667Z,93.56
2018-03-04T04:12:10.342Z,93.66
2018-03-04T04:14:38.042Z,93.76
2018-03-04T04:17:05.786Z,93.75
2018-03-04T04:19:33.494Z,93.71
2018-03-04T04:22:01.179Z,93.71
2018-03-04T04:24:28.854Z,93.67
2018-03-04T04:26:56.567Z,93.45
2018-03-04T04:29:24.367Z,93.45
2018-03-04T04:31:52.108Z,93.43
2018-03-04T04:34:19.771Z,93.27
2018-03-04T04:36:47.541Z,93.18
2018-03-04T04:39:15.201Z,93.28
2018-03-04T04:41:42.914Z,93.29
2018-03-04T04:44:10.587Z,93.27
2018-03-04T04:46:38.319Z,93.22
2018-03-04T04:49:05.979Z,93.28
2018-03-04T04:51:33.674Z,93.36
2018-03-04T04:54:01.353Z,93.40
2018-03-04T04:56:29.053Z,93.48
2018-03-04T04:58:56.732Z,93.39
2018-03-04T05:01:24.471Z,93.30
2018-03-04T05:03:52.139Z,93.42
2018-03-04T05:06:19.845Z,93.34
2018-03-04T05:08:47.518Z,93.38
2018-03-04T05:11:15.218Z,93.42
2018-03-04T05:13:42.909Z,93.44
2018-03-04T05:16:10.627Z,93.45
2018-03-04T05:18:38.294Z,93.44
2018-03-04T05:21:05.987Z,93.44
2018-03-04T05:23:33.659Z,93.41
2018-03-04T05:26:01.366Z,93.45
2018-03-04T05:28:29.054Z,93.58
2018-03-04T05:30:56.747Z,93.65
2018-03-04T05:33:24.422Z,93.57
2018-03-04T05:35:52.123Z,93.66
2018-03-04T05:38:19.803Z,93.78
2018-03-04T05:40:47.473Z,93.86
2018-03-04T05:43:15.181Z,93.91
2018-03-04T05:45:42.958Z,94.04
2018-03-04T05:48:10.630Z,94.16
2018-03-04T05:50:38.364Z,94.21
2018-03-04T05:53:06.034Z,94.24
2018-03-04T05:55:33.745Z,94.34
2018-03-04T05:58:01.459Z,94.42
2018-03-04T06:00:29.160Z,94.48
2018-03-04T06:02:56.846Z,94.48
2018-03-04T06:05:24.562Z,94.55
2018-03-04T06:07:52.223Z,94.70
2018-03-04T06:10:20.046Z,94.71
2018-03-04T06:12:47.718Z,94.82
2018-03-04T06:15:15.425Z,94.87
2018-03-04T06:17:43.111Z,95.28
2018-03-04T06:20:10.813Z,95.37
2018-03-04T06:22:38.479Z,95.64
2018-03-04T06:25:06.170Z,95.77
2018-03-04T06:27:33.842Z,95.96
2018-03-04T06:30:01.534Z,96.19
2018-03-04T06:32:29.206Z,96.35
2018-03-04T06:34:56.902Z,96.53
2018-03-04T06:37:24.571Z,96.50
2018-03-04T06:39:52.322Z,96.58
2018-03-04T06:42:19.985Z,96.77
2018-03-04T06:44:47.687Z,96.85
2018-03-04T06:47:15.354Z,97.04
2018-03-04T06:49:43.069Z,97.05
2018-03-04T06:52:10.742Z,97.07
2018-03-04T06:54:38.438Z,97.04
2018-03-04T06:57:06.159Z,96.89
2018-03-04T06:59:33.870Z,96.80
2018-03-04T07:02:01.561Z,96.77
2018-03-04T07:04:29.257Z,96.83
2018-03-04T07:06:56.919Z,96.76
2018-03-04T07:09:24.611Z,96.76
2018-03-04T07:11:52.299Z,96.80
2018-03-04T07:14:19.997Z,96.86
2018-03-04T07:16:47.670Z,96.94
2018-03-04T07:19:15.377Z,96.87
2018-03-04T07:21:43.046Z,96.85
2018-03-04T07:24:10.805Z,96.76
2018-03-04T07:26:38.470Z,96.65
2018-03-04T07:29:06.173Z,96.58
2018-03-04T07:31:33.838Z,96.56
2018-03-04T07:34:01.555Z,96.47
2018-03-04T07:36:29.215Z,96.42
2018-03-04T07:38:56.889Z,96.32
2018-03-04T07:41:24.710Z,96.27
2018-03-04T07:43:52.382Z,96.24
2018-03-04T07:46:20.211Z,96.08
2018-03-04T07:48:47.886Z,95.92
2018-03-04T07:51:15.606Z,95.90
2018-03-04T07:53:43.291Z,95.93
2018-03-04T07:56:11.000Z,95.91
2018-03-04T07:58:38.675Z,95.80
2018-03-04T08:01:06.393Z,95.80
2018-03-04T08:03:34.157Z,95.77
2018-03-04T08:06:01.779Z,95.47
2018-03-04T08:08:29.450Z,95.36
2018-03-04T08:10:57.155Z,95.29
2018-03-04T08:13:24.814Z,95.10
2018-03-04T08:15:52.508Z,94.92
2018-03-04T08:18:20.191Z,94.83
2018-03-04T08:20:47.893Z,94.82
2018-03-04T08:23:15.559Z,94.60
2018-03-04T08:25:43.267Z,94.53
2018-03-04T08:28:22.442Z,94.32
2018-03-04T08:30:50.118Z,94.21
2018-03-04T08:33:17.773Z,93.98
2018-03-04T08:35:45.419Z,93.99
2018-03-04T08:38:13.051Z,94.08
2018-03-04T08:40:40.730Z,94.06
2018-03-04T08:43:08.374Z,94.09
2018-03-04T08:45:35.985Z,93.84
2018-03-04T08:48:03.621Z,93.71
2018-03-04T08:50:31.302Z,93.49
2018-03-04T08:52:58.991Z,93.57
2018-03-04T08:55:26.666Z,93.39
2018-03-04T08:57:54.385Z,93.35
2018-03-04T09:00:22.058Z,93.08
2018-03-04T09:02:49.739Z,93.01
2018-03-04T09:05:17.350Z,92.73
2018-03-04T09:07:45.038Z,92.47
2018-03-04T09:10:12.786Z,92.23
2018-03-04T09:12:40.507Z,92.07
2018-03-04T09:15:08.102Z,91.99
2018-03-04T09:17:35.802Z,91.70
2018-03-04T09:20:03.536Z,91.21
2018-03-04T09:22:31.184Z,90.62
2018-03-04T09:24:58.784Z,90.20
2018-03-04T09:27:26.406Z,90.20
2018-03-04T09:29:54.022Z,90.18
2018-03-04T09:32:21.638Z,89.99
2018-03-04T09:34:49.234Z,89.78
2018-03-04T09:37:16.847Z,89.54
2018-03-04T09:39:44.451Z,89.01
2018-03-04T09:42:12.094Z,88.65
2018-03-04T09:44:39.705Z,88.18
2018-03-04T09:47:07.332Z,86.93
2018-03-04T09:49:34.934Z,86.70
2018-03-04T09:52:02.578Z,85.65
2018-03-04T09:54:30.167Z,84.27
2018-03-04T09:56:57.811Z,84.10
2018-03-04T09:59:25.421Z,84.87
2018-03-04T10:01:53.062Z,85.04
2018-03-04T10:04:20.712Z,84.95
2018-03-04T10:06:48.326Z,84.52
2018-03-04T10:09:15.941Z,84.56
2018-03-04T10:11:43.581Z,83.59
2018-03-04T10:14:11.163Z,82.90
2018-03-04T10:16:38.833Z,81.91
2018-03-04T10:19:06.440Z,81.43
2018-03-04T10:21:34.066Z,80.18
2018-03-04T10:24:01.675Z,80.09
2018-03-04T10:26:29.356Z,79.59
2018-03-04T10:28:56.977Z,78.20
2018-03-04T10:31:24.616Z,77.45
2018-03-04T10:33:52.200Z,76.88
2018-03-04T10:36:19.822Z,75.85
2018-03-04T10:38:47.422Z,75.29
2018-03-04T10:41:15.046Z,76.30
2018-03-04T10:43:42.728Z,77.45
2018-03-04T10:46:10.362Z,77.90
2018-03-04T10:48:37.962Z,78.51
2018-03-04T10:51:05.638Z,79.05
2018-03-04T10:53:33.244Z,79.27
2018-03-04T10:56:00.858Z,79.39
2018-03-04T10:58:28.474Z,79.23
2018-03-04T11:04:07.978Z,77.28
2018-03-04T11:06:35.639Z,74.80
2018-03-04T11:09:03.250Z,74.61
2018-03-04T11:11:30.877Z,75.38
2018-03-04T11:13:58.459Z,75.85
2018-03-04T11:16:26.090Z,76.64
2018-03-04T11:18:53.691Z,77.33
2018-03-04T11:21:21.316Z,77.52
2018-03-04T11:23:48.921Z,74.56
2018-03-04T11:26:16.543Z,72.38
2018-03-04T11:28:44.260Z,71.43
2018-03-04T11:31:11.793Z,72.67
2018-03-04T11:33:39.420Z,73.50
2018-03-04T11:36:07.058Z,74.22
2018-03-04T11:38:34.763Z,75.05
2018-03-04T11:41:02.393Z,75.35
2018-03-04T11:43:29.983Z,75.28
2018-03-04T11:45:57.647Z,75.17
2018-03-04T11:48:25.262Z,74.41
2018-03-04T11:50:52.902Z,71.79
2018-03-04T11:53:20.509Z,69.15
2018-03-04T11:55:48.163Z,68.43
2018-03-04T11:58:15.767Z,68.76
2018-03-04T12:00:43.394Z,68.83
2018-03-04T12:03:11.074Z,69.52
2018-03-04T12:05:38.719Z,69.86
2018-03-04T12:08:06.418Z,69.71
2018-03-04T12:10:34.081Z,68.66
2018-03-04T12:13:01.691Z,67.45
2018-03-04T12:15:29.381Z,66.88
2018-03-04T12:17:56.978Z,64.88
2018-03-04T12:20:24.608Z,63.70
2018-03-04T12:22:52.213Z,62.70
2018-03-04T12:25:19.855Z,62.26
2018-03-04T12:27:47.464Z,61.56
2018-03-04T12:30:15.096Z,60.69
2018-03-04T12:32:42.739Z,60.88
2018-03-04T12:35:10.429Z,61.42
2018-03-04T12:37:38.045Z,61.34
2018-03-04T12:40:05.682Z,61.06
2018-03-04T12:42:33.342Z,60.74
2018-03-04T12:45:00.995Z,60.37
2018-03-04T12:47:28.707Z,60.76
2018-03-04T12:49:56.346Z,61.49
2018-03-04T12:52:23.939Z,60.93
2018-03-04T12:54:51.555Z,61.15
2018-03-04T12:57:19.200Z,61.17
2018-03-04T12:59:46.843Z,61.02
2018-03-04T13:02:14.477Z,61.16
2018-03-04T13:04:42.104Z,61.09
2018-03-04T13:07:09.738Z,60.45
2018-03-04T13:09:37.327Z,59.22
2018-03-04T13:12:05.019Z,59.83
2018-03-04T14:10:45.370Z,63.00
2018-03-04T14:13:13.046Z,63.48
2018-03-04T14:15:40.681Z,63.26
2018-03-04T14:18:08.315Z,62.99
2018-03-04T14:20:35.966Z,63.48
2018-03-04T14:23:03.658Z,63.50
2018-03-04T14:25:31.331Z,64.18
2018-03-04T14:27:58.955Z,64.04
2018-03-04T14:30:26.603Z,64.28
2018-03-04T14:32:54.203Z,64.37
2018-03-04T14:35:21.858Z,64.45
2018-03-04T14:37:49.463Z,64.45
2018-03-04T14:40:17.089Z,64.93
2018-03-04T14:42:44.696Z,64.99
2018-03-04T14:45:12.335Z,65.34
2018-03-04T14:47:39.963Z,65.71
2018-03-04T14:50:07.620Z,65.82
2018-03-04T14:52:35.287Z,66.02
2018-03-04T14:55:02.987Z,65.99
2018-03-04T14:57:30.586Z,65.83
2018-03-04T14:59:58.334Z,66.05
2018-03-04T15:02:25.977Z,66.13
2018-03-04T15:04:53.614Z,65.92
2018-03-04T15:07:21.220Z,65.97
2018-03-04T15:09:48.856Z,65.96
2018-03-04T15:12:16.458Z,65.79
2018-03-04T15:14:44.047Z,66.05
2018-03-04T15:17:11.708Z,65.81
2018-03-04T15:19:39.325Z,65.63
2018-03-04T15:22:06.950Z,65.89
2018-03-04T15:24:34.551Z,66.00
2018-03-04T15:27:02.260Z,66.11
2018-03-04T15:29:29.865Z,66.03
2018-03-04T15:31:57.499Z,65.92
2018-03-04T15:34:25.113Z,66.02
2018-03-04T15:36:52.758Z,66.03
2018-03-04T15:39:20.388Z,66.27
2018-03-04T15:41:48.073Z,66.41
2018-03-04T15:44:15.703Z,66.55
2018-03-04T15:46:43.334Z,66.41
2018-03-04T15:49:10.942Z,66.36
2018-03-04T15:51:38.572Z,66.52
2018-03-04T15:54:06.202Z,66.84
2018-03-04T15:56:33.883Z,67.05
2018-03-04T15:59:01.493Z,67.39
2018-03-04T16:01:29.137Z,67.58
2018-03-04T16:03:56.786Z,68.00
2018-03-04T16:06:24.434Z,68.36
2018-03-04T16:08:52.059Z,68.35
2018-03-04T16:11:19.744Z,68.32
2018-03-04T16:13:47.396Z,68.60
2018-03-04T16:16:15.032Z,68.86
2018-03-04T16:18:42.718Z,69.11
2018-03-04T16:21:10.338Z,69.17
2018-03-04T17:07:12.906Z,72.20
2018-03-04T17:09:40.546Z,72.35
2018-03-04T17:12:08.155Z,72.61
2018-03-04T17:14:35.818Z,73.26
2018-03-04T17:17:03.421Z,73.92
2018-03-04T17:19:31.084Z,75.95
2018-03-04T17:21:58.716Z,79.77
2018-03-04T17:24:26.383Z,81.66
2018-03-04T17:26:54.003Z,82.96
2018-03-04T17:29:21.633Z,83.15
2018-03-04T17:31:49.254Z,83.36
2018-03-04T17:34:17.077Z,83.76
2018-03-04T17:36:44.679Z,84.36
2018-03-04T17:39:12.316Z,84.59
2018-03-04T17:41:39.919Z,84.03
2018-03-04T17:44:07.558Z,84.18
2018-03-04T17:46:35.176Z,85.23
2018-03-04T17:49:02.803Z,85.11
2018-03-04T17:51:30.420Z,84.50
2018-03-04T17:53:58.076Z,84.21
2018-03-04T17:56:25.681Z,83.45
2018-03-04T17:58:53.470Z,83.00
2018-03-04T18:01:21.073Z,83.46
2018-03-04T18:03:49.062Z,83.63
2018-03-04T18:06:16.646Z,83.57
2018-03-04T18:08:44.400Z,83.20
2018-03-04T18:11:12.052Z,82.23
2018-03-04T18:13:39.643Z,82.30
2018-03-04T18:16:07.275Z,81.95
2018-03-04T18:18:34.915Z,81.43
2018-03-04T18:36:52.649Z,80.38
2018-03-04T18:39:20.256Z,80.31
2018-03-04T18:41:47.900Z,80.57
2018-03-04T18:44:15.508Z,80.85
2018-03-04T18:46:43.175Z,81.21
2018-03-04T18:49:10.784Z,81.15
2018-03-04T18:51:38.428Z,81.59
2018-03-04T18:54:06.033Z,81.73
2018-03-04T18:56:33.654Z,82.03
2018-03-04T18:59:01.260Z,81.95
2018-03-04T19:01:28.902Z,82.11
2018-03-04T19:03:56.485Z,81.76
2018-03-04T19:06:24.135Z,81.48
2018-03-04T19:08:51.737Z,81.14
2018-03-04T19:11:19.377Z,81.39
2018-03-04T19:13:47.038Z,81.17
2018-03-04T19:16:14.679Z,81.48
2018-03-04T19:18:42.286Z,81.19
2018-03-04T19:21:09.920Z,81.45
2018-03-04T19:23:37.529Z,81.13
2018-03-04T19:26:05.137Z,81.33
2018-03-04T19:28:32.789Z,80.51
2018-03-04T19:31:00.438Z,80.67
2018-03-04T19:33:28.044Z,81.01
2018-03-04T19:35:55.666Z,80.65
2018-03-04T19:38:23.291Z,81.01
2018-03-04T19:40:50.901Z,80.72
2018-03-04T19:43:18.544Z,80.81
2018-03-04T19:45:46.165Z,80.83
2018-03-04T19:48:13.808Z,80.53
2018-03-04T19:50:41.402Z,80.04
2018-03-04T19:53:09.054Z,79.80
2018-03-04T19:55:36.712Z,79.71
2018-03-04T19:58:04.311Z,79.39
2018-03-04T20:00:31.947Z,79.27
2018-03-04T20:02:59.646Z,79.01
2018-03-04T20:05:27.248Z,79.09
2018-03-04T20:07:54.970Z,79.33
2018-03-04T20:10:22.563Z,79.70
2018-03-04T20:12:50.218Z,79.81
2018-03-04T20:15:17.831Z,79.83
2018-03-04T20:17:45.597Z,80.27
2018-03-04T20:20:13.209Z,80.36
2018-03-04T20:22:40.826Z,80.40
2018-03-04T20:25:08.468Z,80.43
2018-03-04T20:27:36.118Z,79.64
2018-03-04T20:30:03.726Z,79.65
2018-03-04T20:32:31.372Z,80.04
2018-03-04T20:34:58.971Z,80.29
2018-03-04T20:37:26.602Z,80.75
2018-03-04T20:39:54.201Z,80.50
2018-03-04T20:42:21.898Z,80.39
2018-03-04T20:44:49.504Z,79.96
2018-03-04T20:47:17.162Z,80.07
2018-03-04T20:49:44.758Z,80.27
2018-03-04T20:52:12.589Z,80.21
2018-03-04T20:54:40.187Z,80.19
2018-03-04T20:57:07.862Z,80.38
2018-03-04T20:59:35.439Z,80.55
2018-03-04T21:02:03.067Z,80.48
2018-03-04T21:04:30.678Z,79.65
2018-03-04T21:06:58.363Z,79.66
2018-03-04T21:09:25.921Z,79.61
2018-03-04T21:11:53.651Z,79.83
2018-03-04T21:14:21.282Z,79.85
2018-03-04T21:16:48.919Z,79.76
2018-03-04T21:19:16.556Z,79.63
2018-03-04T21:21:44.164Z,79.67
2018-03-04T21:24:11.797Z,79.64
2018-03-04T21:26:39.465Z,79.85
2018-03-04T21:29:07.180Z,80.07
2018-03-04T21:31:34.824Z,80.13
2018-03-04T21:34:02.418Z,80.51
2018-03-04T21:36:30.050Z,80.56
2018-03-04T21:38:57.652Z,80.86
2018-03-04T21:41:25.273Z,80.60
2018-03-04T21:43:52.933Z,80.87
2018-03-04T21:46:20.574Z,80.76
2018-03-04T21:48:48.178Z,81.02
2018-03-04T21:51:15.808Z,81.29
2018-03-04T21:53:43.461Z,81.60
2018-03-04T21:56:11.088Z,81.85
2018-03-04T21:58:38.677Z,81.99
2018-03-04T22:01:06.443Z,82.20
2018-03-04T22:03:34.049Z,82.34
2018-03-04T22:06:01.674Z,82.48
2018-03-04T22:08:29.311Z,82.78
2018-03-04T22:10:56.927Z,82.85
2018-03-04T22:13:24.567Z,83.04
2018-03-04T22:15:52.154Z,83.17
2018-03-04T22:18:19.856Z,83.16
2018-03-04T22:20:47.446Z,83.29
2018-03-04T22:23:15.228Z,83.44
2018-03-04T22:25:42.896Z,83.43
2018-03-04T22:28:10.507Z,83.19
2018-03-04T22:30:38.093Z,82.88
2018-03-04T22:33:05.726Z,82.54
2018-03-04T22:35:33.348Z,82.35
2018-03-04T22:38:00.958Z,82.26
2018-03-04T22:40:28.592Z,82.06
2018-03-04T22:42:56.224Z,82.11
2018-03-04T22:45:24.149Z,82.06
2018-03-04T22:47:51.762Z,81.77
2018-03-04T22:50:19.451Z,81.76
2018-03-04T22:52:47.085Z,81.80
2018-03-04T22:55:14.674Z,82.19
2018-03-04T22:57:42.308Z,82.43
2018-03-04T23:00:09.910Z,82.49
2018-03-04T23:02:37.526Z,82.33
2018-03-04T23:05:05.144Z,81.76
2018-03-04T23:07:32.926Z,81.53
2018-03-04T23:10:00.580Z,81.59
2018-03-04T23:12:28.385Z,82.11
2018-03-04T23:14:56.041Z,82.61
2018-03-04T23:17:23.662Z,81.98
2018-03-04T23:19:51.360Z,82.48
2018-03-04T23:22:18.987Z,82.54
2018-03-04T23:24:46.755Z,82.53
2018-03-04T23:27:14.381Z,82.38
2018-03-04T23:29:41.955Z,82.37
2018-03-04T23:32:09.574Z,82.29
2018-03-04T23:34:37.159Z,82.09
2018-03-04T23:37:04.779Z,82.11
2018-03-04T23:39:32.391Z,82.18
2018-03-04T23:42:00.011Z,82.04
2018-03-04T23:44:27.599Z,82.17
2018-03-04T23:46:55.214Z,82.35
2018-03-04T23:49:22.794Z,82.45
2018-03-04T23:51:50.407Z,82.62
2018-03-04T23:54:18.165Z,82.78
2018-03-04T23:56:45.766Z,82.96
2018-03-04T23:59:13.346Z,83.02
